createdAt,value
2023-01-05T00:02:16.330Z,11.90
2023-01-05T00:04:47.325Z,11.90
2023-01-05T00:07:22.172Z,11.80
2023-01-05T00:09:49.384Z,11.80
2023-01-05T00:12:35.301Z,11.80
2023-01-05T00:15:20.991Z,11.80
2023-01-05T00:18:06.952Z,11.80
2023-01-05T00:20:52.533Z,11.80
2023-01-05T00:23:21.042Z,11.80
2023-01-05T00:25:48.280Z,11.80
2023-01-05T00:28:15.335Z,11.80
2023-01-05T00:30:46.038Z,11.80
2023-01-05T00:33:16.288Z,11.80
2023-01-05T00:35:44.049Z,11.80
2023-01-05T00:38:11.242Z,11.70
2023-01-05T00:40:38.869Z,11.80
2023-01-05T00:43:06.322Z,11.70
2023-01-05T00:45:34.319Z,11.70
2023-01-05T00:48:01.353Z,11.70
2023-01-05T00:50:28.902Z,11.70
2023-01-05T00:52:55.859Z,11.70
2023-01-05T00:55:22.851Z,11.70
2023-01-05T00:57:49.896Z,11.60
2023-01-05T01:00:19.671Z,11.60
2023-01-05T01:02:47.502Z,11.60
2023-01-05T01:05:14.590Z,11.60
2023-01-05T01:07:41.640Z,11.60
2023-01-05T01:10:11.194Z,11.70
2023-01-05T01:12:38.480Z,11.70
2023-01-05T01:15:07.143Z,11.70
2023-01-05T01:17:35.678Z,11.70
2023-01-05T01:20:02.725Z,11.70
2023-01-05T01:22:29.707Z,11.70
2023-01-05T01:24:56.660Z,11.60
2023-01-05T01:27:23.829Z,11.60
2023-01-05T01:29:50.781Z,11.60
2023-01-05T01:32:17.781Z,11.60
2023-01-05T01:34:45.491Z,11.60
2023-01-05T01:37:13.104Z,11.60
2023-01-05T01:39:45.610Z,11.60
2023-01-05T01:42:16.532Z,11.60
2023-01-05T01:44:52.709Z,11.60
2023-01-05T01:47:45.620Z,11.60
2023-01-05T01:50:22.812Z,11.50
2023-01-05T01:52:56.309Z,11.50
2023-01-05T01:55:24.355Z,11.50
2023-01-05T01:57:52.613Z,11.50
2023-01-05T02:00:21.351Z,11.50
2023-01-05T02:02:55.624Z,11.50
2023-01-05T02:05:30.385Z,11.50
2023-01-05T02:07:57.597Z,11.50
2023-01-05T02:10:55.368Z,11.40
2023-01-05T02:13:40.718Z,11.50
2023-01-05T02:16:19.963Z,11.40
2023-01-05T02:19:22.424Z,11.50
2023-01-05T02:22:18.389Z,11.40
2023-01-05T02:25:22.918Z,11.40
2023-01-05T02:28:22.028Z,11.40
2023-01-05T02:31:23.111Z,11.40
2023-01-05T02:34:47.027Z,11.40
2023-01-05T02:37:23.258Z,11.40
2023-01-05T02:40:15.654Z,11.30
2023-01-05T02:42:46.490Z,11.30
2023-01-05T02:45:16.703Z,11.30
2023-01-05T02:47:45.539Z,11.30
2023-01-05T02:50:43.100Z,11.30
2023-01-05T02:53:28.692Z,11.30
2023-01-05T02:56:10.133Z,11.30
2023-01-05T02:59:15.062Z,11.20
2023-01-05T03:02:01.216Z,11.20
2023-01-05T03:04:45.145Z,11.20
2023-01-05T03:07:19.039Z,11.30
2023-01-05T03:09:47.804Z,11.20
2023-01-05T03:12:53.633Z,11.20
2023-01-05T03:15:30.237Z,11.20
2023-01-05T03:18:07.427Z,11.20
2023-01-05T03:20:41.619Z,11.20
2023-01-05T03:23:30.962Z,11.10
2023-01-05T03:26:17.315Z,11.10
2023-01-05T03:29:21.768Z,11.10
2023-01-05T03:32:17.792Z,11.10
2023-01-05T03:35:24.086Z,11.00
2023-01-05T03:37:59.566Z,11.10
2023-01-05T03:40:36.712Z,11.00
2023-01-05T03:43:06.046Z,11.00
2023-01-05T03:45:44.806Z,11.00
2023-01-05T03:48:18.282Z,11.10
2023-01-05T03:50:46.615Z,11.10
2023-01-05T03:53:16.142Z,11.00
2023-01-05T03:55:46.605Z,11.00
2023-01-05T03:58:14.793Z,11.00
2023-01-05T04:00:46.862Z,11.00
2023-01-05T04:03:16.954Z,11.00
2023-01-05T04:05:44.319Z,11.00
2023-01-05T04:08:16.900Z,11.10
2023-01-05T04:10:46.092Z,11.10
2023-01-05T04:13:14.404Z,11.00
2023-01-05T04:15:43.905Z,11.00
2023-01-05T04:18:16.339Z,11.00
2023-01-05T04:20:44.019Z,10.90
2023-01-05T04:23:14.140Z,10.90
2023-01-05T04:25:47.101Z,10.90
2023-01-05T04:28:20.950Z,10.90
2023-01-05T04:30:55.509Z,10.90
2023-01-05T04:33:26.107Z,10.90
2023-01-05T04:35:54.939Z,10.90
2023-01-05T04:38:25.395Z,10.90
2023-01-05T04:40:54.518Z,10.90
2023-01-05T04:43:25.645Z,10.80
2023-01-05T04:45:58.148Z,10.90
2023-01-05T04:48:25.764Z,10.80
2023-01-05T04:50:57.156Z,10.80
2023-01-05T04:53:34.044Z,10.90
2023-01-05T04:56:01.951Z,10.80
2023-01-05T04:58:34.176Z,10.80
2023-01-05T05:01:02.245Z,10.80
2023-01-05T05:03:33.291Z,10.80
2023-01-05T05:06:01.828Z,10.80
2023-01-05T05:08:29.894Z,10.70
2023-01-05T05:10:59.824Z,10.70
2023-01-05T05:13:28.751Z,10.70
2023-01-05T05:15:56.030Z,10.70
2023-01-05T05:18:24.656Z,10.60
2023-01-05T05:20:53.628Z,10.60
2023-01-05T05:23:25.670Z,10.60
2023-01-05T05:25:53.550Z,10.60
2023-01-05T05:28:28.584Z,10.60
2023-01-05T05:30:56.952Z,10.60
2023-01-05T05:33:25.395Z,10.60
2023-01-05T05:35:53.512Z,10.60
2023-01-05T05:38:20.698Z,10.60
2023-01-05T05:40:49.614Z,10.60
2023-01-05T05:43:17.336Z,10.60
2023-01-05T05:45:50.069Z,10.50
2023-01-05T05:48:19.029Z,10.50
2023-01-05T05:50:47.212Z,10.50
2023-01-05T05:53:14.680Z,10.40
2023-01-05T05:55:41.727Z,10.40
2023-01-05T05:58:09.291Z,10.40
2023-01-05T06:00:37.888Z,10.40
2023-01-05T06:03:05.159Z,10.40
2023-01-05T06:05:32.568Z,10.40
2023-01-05T06:07:59.877Z,10.40
2023-01-05T06:10:27.305Z,10.40
2023-01-05T06:12:55.809Z,10.40
2023-01-05T06:15:24.440Z,10.40
2023-01-05T06:17:51.679Z,10.40
2023-01-05T06:20:18.711Z,10.40
2023-01-05T06:22:45.918Z,10.40
2023-01-05T06:25:13.500Z,10.40
2023-01-05T06:27:40.541Z,10.30
2023-01-05T06:30:08.959Z,10.30
2023-01-05T06:32:36.008Z,10.40
2023-01-05T06:35:03.401Z,10.30
2023-01-05T06:37:30.647Z,10.30
2023-01-05T06:39:58.017Z,10.30
2023-01-05T06:42:25.568Z,10.30
2023-01-05T06:44:52.818Z,10.20
2023-01-05T06:47:20.228Z,10.30
2023-01-05T06:49:47.470Z,10.30
2023-01-05T06:52:16.811Z,10.30
2023-01-05T06:54:44.667Z,10.20
2023-01-05T06:57:14.019Z,10.20
2023-01-05T06:59:41.395Z,10.20
2023-01-05T07:02:17.144Z,10.20
2023-01-05T07:04:44.673Z,10.10
2023-01-05T07:07:15.717Z,10.10
2023-01-05T07:09:45.156Z,10.10
2023-01-05T07:12:17.371Z,10.10
2023-01-05T07:14:44.531Z,10.10
2023-01-05T07:17:12.636Z,10.10
2023-01-05T07:19:40.422Z,10.10
2023-01-05T07:22:07.996Z,10.10
2023-01-05T07:24:35.220Z,10.10
2023-01-05T07:27:09.221Z,10.10
2023-01-05T07:29:37.214Z,10.10
2023-01-05T07:32:05.004Z,10.10
2023-01-05T07:34:32.207Z,10.10
2023-01-05T07:36:59.436Z,10.10
2023-01-05T07:39:27.804Z,10.10
2023-01-05T07:41:55.520Z,10.10
2023-01-05T07:44:25.859Z,10.10
2023-01-05T07:46:53.721Z,10.10
2023-01-05T07:49:20.805Z,10.10
2023-01-05T07:51:47.834Z,10.10
2023-01-05T07:54:15.550Z,10.10
2023-01-05T07:56:43.648Z,10.10
2023-01-05T07:59:10.562Z,10.10
2023-01-05T08:01:37.628Z,10.10
2023-01-05T08:04:05.023Z,10.10
2023-01-05T08:06:33.295Z,10.20
2023-01-05T08:09:20.284Z,10.10
2023-01-05T08:11:47.350Z,10.10
2023-01-05T08:14:14.417Z,10.10
2023-01-05T08:16:42.915Z,10.10
2023-01-05T08:19:11.638Z,10.20
2023-01-05T08:21:38.926Z,10.20
2023-01-05T08:24:06.553Z,10.20
2023-01-05T08:26:33.520Z,10.20
2023-01-05T08:29:01.326Z,10.20
2023-01-05T08:31:31.365Z,10.20
2023-01-05T08:34:00.160Z,10.20
2023-01-05T08:36:28.023Z,10.20
2023-01-05T08:38:56.268Z,10.30
2023-01-05T08:41:30.635Z,10.30
2023-01-05T08:44:03.956Z,10.30
2023-01-05T08:46:34.430Z,10.30
2023-01-05T08:49:05.217Z,10.30
2023-01-05T08:51:32.650Z,10.30
2023-01-05T08:53:59.833Z,10.40
2023-01-05T08:56:31.672Z,10.40
2023-01-05T08:59:01.952Z,10.40
2023-01-05T09:01:29.271Z,10.40
2023-01-05T09:03:56.430Z,10.50
2023-01-05T09:06:23.380Z,10.40
2023-01-05T09:08:50.611Z,10.50
2023-01-05T09:11:26.205Z,10.50
2023-01-05T09:13:58.039Z,10.50
2023-01-05T09:19:16.946Z,10.50
2023-01-05T09:21:44.527Z,10.60
2023-01-05T09:24:13.068Z,10.60
2023-01-05T09:26:43.610Z,10.60
2023-01-05T09:29:12.216Z,10.60
2023-01-05T09:31:42.096Z,10.70
2023-01-05T09:34:10.651Z,10.60
2023-01-05T09:36:41.349Z,10.70
2023-01-05T09:39:09.614Z,10.70
2023-01-05T09:41:48.893Z,10.70
2023-01-05T09:44:58.372Z,10.70
2023-01-05T09:47:46.691Z,10.80
2023-01-05T09:50:27.539Z,10.80
2023-01-05T09:53:05.498Z,10.80
2023-01-05T09:55:35.563Z,10.80
2023-01-05T09:58:20.041Z,10.80
2023-01-05T10:01:09.115Z,10.90
2023-01-05T10:04:04.101Z,10.90
2023-01-05T10:06:38.128Z,10.90
2023-01-05T10:09:07.275Z,10.90
2023-01-05T10:12:21.004Z,11.00
2023-01-05T10:14:56.123Z,11.00
2023-01-05T10:17:43.620Z,11.00
2023-01-05T10:20:26.507Z,11.10
2023-01-05T10:23:38.359Z,11.10
2023-01-05T10:26:58.275Z,11.10
2023-01-05T10:29:44.732Z,11.20
2023-01-05T10:32:49.220Z,11.20
2023-01-05T10:35:59.077Z,11.20
2023-01-05T10:38:44.527Z,11.30
2023-01-05T10:41:32.601Z,11.30
2023-01-05T10:44:42.684Z,11.30
2023-01-05T10:47:13.695Z,11.30
2023-01-05T10:49:45.216Z,11.30
2023-01-05T10:52:21.275Z,11.30
2023-01-05T10:54:59.814Z,11.40
2023-01-05T10:57:34.594Z,11.40
2023-01-05T11:00:14.524Z,11.40
2023-01-05T11:03:01.667Z,11.40
2023-01-05T11:05:44.248Z,11.40
2023-01-05T11:08:20.085Z,11.40
2023-01-05T11:11:00.490Z,11.40
2023-01-05T11:13:37.968Z,11.50
2023-01-05T11:16:14.258Z,11.40
2023-01-05T11:18:59.502Z,11.50
2023-01-05T11:21:43.375Z,11.40
2023-01-05T11:24:33.914Z,11.50
2023-01-05T11:27:24.099Z,11.40
2023-01-05T11:30:26.800Z,11.50
2023-01-05T11:32:54.111Z,11.70
2023-01-05T11:35:38.199Z,11.70
2023-01-05T11:38:28.539Z,11.70
2023-01-05T11:40:58.792Z,11.60
2023-01-05T11:43:30.386Z,11.60
2023-01-05T11:46:03.876Z,11.60
2023-01-05T11:48:35.486Z,11.60
2023-01-05T11:51:03.184Z,11.60
2023-01-05T11:53:52.755Z,11.60
2023-01-05T11:56:25.515Z,11.60
2023-01-05T11:58:58.134Z,11.60
2023-01-05T12:01:37.442Z,11.70
2023-01-05T12:04:29.595Z,11.70
2023-01-05T12:07:22.373Z,11.70
2023-01-05T12:14:58.319Z,11.70
2023-01-05T12:17:54.638Z,11.80
2023-01-05T12:21:15.164Z,11.80
2023-01-05T12:23:55.629Z,11.80
2023-01-05T12:26:50.321Z,11.90
2023-01-05T12:34:07.298Z,11.90
2023-01-05T12:37:32.719Z,11.90
2023-01-05T12:40:08.266Z,11.90
2023-01-05T12:42:59.647Z,11.90
2023-01-05T12:45:48.635Z,11.90
2023-01-05T12:48:54.384Z,11.90
2023-01-05T12:51:43.958Z,12.00
2023-01-05T12:55:04.238Z,12.00
2023-01-05T12:57:49.394Z,12.00
2023-01-05T13:00:19.852Z,12.10
2023-01-05T13:02:57.642Z,12.10
2023-01-05T13:05:57.366Z,12.30
2023-01-05T13:09:06.714Z,12.50
2023-01-05T13:12:04.682Z,12.50
2023-01-05T13:14:37.358Z,12.40
2023-01-05T13:17:32.192Z,12.40
2023-01-05T13:20:40.993Z,12.40
2023-01-05T13:23:35.010Z,12.30
2023-01-05T13:26:11.219Z,12.40
2023-01-05T13:28:38.478Z,12.50
2023-01-05T13:31:32.848Z,12.50
2023-01-05T13:34:30.945Z,12.50
2023-01-05T13:37:27.157Z,12.50
2023-01-05T13:40:50.339Z,12.40
2023-01-05T13:43:53.826Z,12.40
2023-01-05T13:47:02.374Z,12.30
2023-01-05T13:49:50.867Z,12.20
2023-01-05T13:52:17.866Z,12.20
2023-01-05T13:55:02.376Z,12.20
2023-01-05T13:57:43.207Z,12.10
2023-01-05T14:00:34.056Z,12.10
2023-01-05T14:03:06.994Z,12.10
2023-01-05T14:05:53.786Z,12.10
2023-01-05T14:08:32.827Z,12.10
2023-01-05T14:11:21.593Z,12.10
2023-01-05T14:13:53.303Z,12.10
2023-01-05T14:16:35.846Z,12.10
2023-01-05T14:19:25.844Z,12.10
2023-01-05T14:21:59.700Z,12.20
2023-01-05T14:27:14.131Z,12.10
2023-01-05T14:32:36.600Z,11.90
2023-01-05T14:35:28.793Z,11.90
2023-01-05T14:38:02.634Z,11.80
2023-01-05T14:40:45.251Z,11.80
2023-01-05T14:43:21.562Z,11.80
2023-01-05T14:46:05.397Z,11.80
2023-01-05T14:48:58.659Z,11.70
2023-01-05T14:51:32.265Z,11.70
2023-01-05T14:54:07.036Z,11.70
2023-01-05T14:56:39.378Z,11.60
2023-01-05T15:13:08.201Z,11.50
2023-01-05T15:17:00.921Z,11.50
2023-01-05T15:20:17.123Z,11.50
2023-01-05T15:23:29.275Z,11.50
2023-01-05T15:26:22.793Z,11.40
2023-01-05T15:29:47.679Z,11.40
2023-01-05T15:32:27.595Z,11.40
2023-01-05T15:35:24.547Z,11.40
2023-01-05T15:37:53.172Z,11.40
2023-01-05T15:40:24.717Z,11.40
2023-01-05T15:42:56.998Z,11.40
2023-01-05T15:45:35.010Z,11.40
2023-01-05T15:48:11.137Z,11.40
2023-01-05T15:50:53.600Z,11.40
2023-01-05T15:53:38.006Z,11.40
2023-01-05T15:56:36.930Z,11.40
2023-01-05T15:59:22.772Z,11.30
2023-01-05T16:01:49.945Z,11.30
2023-01-05T16:04:17.790Z,11.30
2023-01-05T16:06:56.119Z,11.20
2023-01-05T16:09:40.369Z,11.30
2023-01-05T16:12:25.448Z,11.30
2023-01-05T16:15:04.375Z,11.20
2023-01-05T16:17:34.967Z,11.30
2023-01-05T16:20:13.225Z,11.20
2023-01-05T16:23:00.948Z,11.20
2023-01-05T16:25:40.837Z,11.20
2023-01-05T16:28:19.048Z,11.20
2023-01-05T16:40:11.972Z,11.30
2023-01-05T16:56:09.893Z,11.20
2023-01-05T17:00:24.971Z,11.10
2023-01-05T17:04:02.710Z,11.10
2023-01-05T17:27:24.067Z,11.00
2023-01-05T17:29:51.905Z,10.90
2023-01-05T17:32:19.966Z,10.90
2023-01-05T17:34:47.334Z,10.90
2023-01-05T17:37:17.777Z,10.90
2023-01-05T17:39:45.016Z,10.90
2023-01-05T17:45:03.102Z,10.90
2023-01-05T17:47:30.028Z,10.80
2023-01-05T17:49:57.173Z,10.80
2023-01-05T18:08:38.276Z,10.80
2023-01-05T18:11:07.554Z,10.70
2023-01-05T18:13:35.642Z,10.70
2023-01-05T18:16:08.990Z,10.70
2023-01-05T18:18:39.660Z,10.70
2023-01-05T18:21:07.426Z,10.70
2023-01-05T18:23:35.011Z,10.70
2023-01-05T18:26:08.131Z,10.70
2023-01-05T18:28:37.289Z,10.70
2023-01-05T18:31:13.378Z,10.70
2023-01-05T18:33:41.103Z,10.70
2023-01-05T18:36:18.212Z,10.70
2023-01-05T18:38:45.653Z,10.70
2023-01-05T18:41:13.846Z,10.70
2023-01-05T18:43:41.515Z,10.70
2023-01-05T18:46:08.782Z,10.80
2023-01-05T18:52:22.098Z,10.80
2023-01-05T18:54:49.245Z,10.70
2023-01-05T18:57:16.424Z,10.70
2023-01-05T18:59:43.649Z,10.70
2023-01-05T19:02:15.932Z,10.70
2023-01-05T19:04:43.744Z,10.70
2023-01-05T19:07:11.344Z,10.70
2023-01-05T19:09:38.527Z,10.70
2023-01-05T19:12:06.264Z,10.60
2023-01-05T19:14:33.513Z,10.60
2023-01-05T19:17:00.695Z,10.60
2023-01-05T19:19:28.943Z,10.60
2023-01-05T19:21:56.103Z,10.60
2023-01-05T19:24:26.521Z,10.60
2023-01-05T19:26:53.819Z,10.60
2023-01-05T19:29:21.667Z,10.60
2023-01-05T19:31:49.121Z,10.60
2023-01-05T19:34:19.446Z,10.60
2023-01-05T19:36:47.858Z,10.60
2023-01-05T19:39:19.056Z,10.70
2023-01-05T19:41:48.276Z,10.60
2023-01-05T19:44:20.234Z,10.70
2023-01-05T19:46:54.220Z,10.70
2023-01-05T19:49:30.251Z,10.70
2023-01-05T19:51:57.343Z,10.70
2023-01-05T19:54:28.677Z,10.70
2023-01-05T19:56:56.415Z,10.70
2023-01-05T19:59:33.445Z,10.80
2023-01-05T20:02:05.435Z,10.70
2023-01-05T20:04:33.567Z,10.70
2023-01-05T20:07:03.988Z,10.70
2023-01-05T20:09:32.379Z,10.70
2023-01-05T20:12:13.302Z,10.70
2023-01-05T20:14:41.476Z,10.80
2023-01-05T20:17:10.518Z,10.80
2023-01-05T20:19:39.376Z,10.80
2023-01-05T20:22:13.699Z,10.80
2023-01-05T20:24:43.706Z,10.80
2023-01-05T20:27:14.733Z,10.90
2023-01-05T20:29:41.946Z,10.90
2023-01-05T20:32:20.772Z,11.00
2023-01-05T20:34:53.646Z,11.00
2023-01-05T20:37:23.823Z,11.00
2023-01-05T20:39:51.120Z,11.10
2023-01-05T20:42:18.084Z,11.10
2023-01-05T20:44:46.975Z,11.10
2023-01-05T20:47:17.943Z,11.10
2023-01-05T20:57:08.068Z,11.20
2023-01-05T21:04:32.425Z,11.20
2023-01-05T21:07:21.731Z,11.10
2023-01-05T21:09:51.680Z,11.10
2023-01-05T21:12:20.351Z,11.20
2023-01-05T21:14:47.728Z,11.20
2023-01-05T21:17:14.729Z,11.20
2023-01-05T21:19:41.894Z,11.20
2023-01-05T21:22:09.137Z,11.20
2023-01-05T21:24:37.024Z,11.10
2023-01-05T21:27:04.365Z,11.10
2023-01-05T21:29:31.447Z,11.00
2023-01-05T21:31:58.469Z,11.00
2023-01-05T21:34:25.820Z,10.90
2023-01-05T21:36:53.331Z,10.80
2023-01-05T21:39:25.675Z,10.80
2023-01-05T21:42:12.884Z,10.80
2023-01-05T21:44:40.791Z,10.80
2023-01-05T21:47:08.630Z,10.70
2023-01-05T21:49:36.597Z,10.70
2023-01-05T21:52:23.734Z,10.70
2023-01-05T21:55:09.710Z,10.70
2023-01-05T21:57:43.512Z,10.60
2023-01-05T22:00:11.882Z,10.60
2023-01-05T22:02:46.247Z,10.60
2023-01-05T22:05:13.659Z,10.50
2023-01-05T22:07:40.820Z,10.60
2023-01-05T22:10:08.696Z,10.50
2023-01-05T22:12:35.871Z,10.50
2023-01-05T22:15:05.123Z,10.50
2023-01-05T22:17:34.260Z,10.50
2023-01-05T22:20:01.290Z,10.50
2023-01-05T22:22:28.357Z,10.50
2023-01-05T22:24:55.585Z,10.50
2023-01-05T22:27:25.697Z,10.50
2023-01-05T22:29:52.868Z,10.50
2023-01-05T22:32:20.009Z,10.50
2023-01-05T22:34:47.590Z,10.50
2023-01-05T22:37:17.879Z,10.50
2023-01-05T22:39:44.964Z,10.60
2023-01-05T22:42:12.108Z,10.60
2023-01-05T22:44:39.536Z,10.60
2023-01-05T22:47:06.600Z,10.60
2023-01-05T22:49:36.160Z,10.60
2023-01-05T22:52:09.389Z,10.70
2023-01-05T22:54:39.007Z,10.70
2023-01-05T22:57:05.955Z,10.70
2023-01-05T22:59:33.092Z,10.70
2023-01-05T23:02:00.368Z,10.70
2023-01-05T23:04:27.405Z,10.80
2023-01-05T23:06:54.237Z,10.80
2023-01-05T23:09:21.285Z,10.90
2023-01-05T23:11:48.394Z,10.90
2023-01-05T23:14:18.386Z,11.00
2023-01-05T23:16:46.465Z,11.00
2023-01-05T23:19:15.015Z,11.10
2023-01-05T23:21:42.494Z,11.10
2023-01-05T23:24:09.846Z,11.10
2023-01-05T23:26:36.746Z,11.20
2023-01-05T23:29:04.181Z,11.20
2023-01-05T23:31:31.089Z,11.20
2023-01-05T23:33:58.038Z,11.20
2023-01-05T23:36:25.131Z,11.30
2023-01-05T23:38:52.008Z,11.30
2023-01-05T23:41:19.237Z,11.40
2023-01-05T23:43:47.141Z,11.40
2023-01-05T23:46:19.908Z,11.40
2023-01-05T23:48:48.318Z,11.30
2023-01-05T23:51:16.786Z,11.30
2023-01-05T23:53:52.436Z,11.30
2023-01-05T23:56:26.815Z,11.30
2023-01-05T23:59:06.676Z,11.30
